Ladd AAF Airport (FBK)

 

Airport Diagram
Current Weather/Forecast (MVFR Conditions)
METAR PAFB 100613Z AUTO 00000KT 3SM -RA BR FEW005 BKN050 OVC065 13/12 A2979 RMK AO2 SLP091
TAF TAF AMD PAFB 100345Z 1003/1105 VRB06KT 9999 -TSRA SCT010 BKN050CB QNH2976INS BECMG 1003/1004 VRB06KT 9999 VCTS SCT010 BKN050CB QNH2970INS TEMPO 1004/1006 8000 -TSRA BKN050CB BECMG 1007/1008 VRB06KT 9999 VCSH BKN040 QNH2972INS BECMG 1015/1016 03012KT 9999 NSW FEW040 SCT100 QNH2975INS TX21/1003Z TN11/1015Z

All Charts

Inbound Traffic (Arrivals)

No inbound traffic.


Outbound Traffic (Departures)

No outbound traffic.